createdAt,value
2023-04-07T18:41:46.211Z,100862.75
2023-04-07T18:44:13.554Z,100869.97
2023-04-07T18:46:40.596Z,100867.59
2023-04-07T18:49:07.523Z,100867.69
2023-04-07T18:51:34.463Z,100869.56
2023-04-07T18:54:01.362Z,100871.69
2023-04-07T18:56:28.295Z,100874.63
2023-04-07T18:58:55.221Z,100881.63
2023-04-07T19:01:22.295Z,100884.25
2023-04-07T19:03:49.756Z,100884.25
2023-04-07T19:06:17.394Z,100887.59
2023-04-07T19:08:44.507Z,100889.25
2023-04-07T19:11:11.789Z,100890.94
2023-04-07T19:13:38.678Z,100892.09
2023-04-07T19:16:07.504Z,100888.63
2023-04-07T19:18:34.579Z,100892.81
2023-04-07T19:21:01.546Z,100891.84
2023-04-07T19:23:30.516Z,100891.97
2023-04-07T19:25:57.587Z,100910.38
2023-04-07T19:28:24.485Z,100907.03
2023-04-07T19:30:51.386Z,100910.50
2023-04-07T19:33:18.211Z,100918.34
2023-04-07T19:35:45.405Z,100914.16
2023-04-07T19:38:12.191Z,100917.81
2023-04-07T19:40:39.052Z,100918.97
2023-04-07T19:43:07.221Z,100921.91
2023-04-07T19:45:34.217Z,100920.47
2023-04-07T19:48:01.287Z,100921.50
2023-04-07T19:50:28.347Z,100926.84
2023-04-07T19:52:55.218Z,100927.78
2023-04-07T19:55:22.157Z,100931.53
2023-04-07T19:57:49.055Z,100931.97
2023-04-07T20:00:16.594Z,100929.78
2023-04-07T20:02:43.578Z,100928.41
2023-04-07T20:05:10.581Z,100933.03
2023-04-07T20:07:37.538Z,100934.91
2023-04-07T20:10:04.814Z,100936.78
2023-04-07T20:12:31.801Z,100942.94
2023-04-07T20:14:58.725Z,100945.56
2023-04-07T20:17:25.681Z,100946.28
2023-04-07T20:19:55.222Z,100948.81
2023-04-07T20:22:22.827Z,100954.03
2023-04-07T20:24:49.726Z,100951.72
2023-04-07T20:27:16.662Z,100950.28
2023-04-07T20:29:44.056Z,100948.09
2023-04-07T20:32:10.906Z,100951.00
2023-04-07T20:34:37.790Z,100953.06
2023-04-07T20:37:04.615Z,100950.78
2023-04-07T20:39:31.484Z,100946.59
2023-04-07T20:41:58.795Z,100952.13
2023-04-07T20:44:27.908Z,100949.72
2023-04-07T20:46:54.935Z,100949.91
2023-04-07T20:49:21.824Z,100945.84
2023-04-07T20:51:48.850Z,100953.88
2023-04-07T20:54:15.699Z,100958.38
2023-04-07T20:56:44.584Z,100962.88
2023-04-07T20:59:11.639Z,100953.53
2023-04-07T21:01:38.727Z,100958.97
2023-04-07T21:04:05.871Z,100954.91
2023-04-07T21:06:33.173Z,100951.56
2023-04-07T21:09:00.111Z,100953.50
2023-04-07T21:11:27.374Z,100956.03
2023-04-07T21:13:54.494Z,100962.47
2023-04-07T21:16:21.817Z,100963.31
2023-04-07T21:18:49.050Z,100959.78
2023-04-07T21:21:16.618Z,100962.47
2023-04-07T21:23:43.609Z,100952.25
2023-04-07T21:26:10.645Z,100952.56
2023-04-07T21:28:40.001Z,100954.88
2023-04-07T21:31:07.845Z,100956.84
2023-04-07T21:33:35.183Z,100952.78
2023-04-07T21:36:03.829Z,100946.16
2023-04-07T21:38:31.448Z,100953.34
2023-04-07T21:40:58.505Z,100959.81
2023-04-07T21:43:26.327Z,100959.38
2023-04-07T21:45:53.540Z,100957.16
2023-04-07T21:48:23.397Z,100964.22
2023-04-07T21:50:53.671Z,100963.56
2023-04-07T21:53:20.973Z,100950.00
2023-04-07T21:55:48.052Z,100959.59
2023-04-07T21:58:14.943Z,100956.25
2023-04-07T22:00:41.842Z,100966.66
2023-04-07T22:03:08.927Z,100966.66
2023-04-07T22:05:36.012Z,100971.88
2023-04-07T22:08:03.199Z,100972.06
2023-04-07T22:10:30.514Z,100974.94
2023-04-07T22:12:57.439Z,100976.06
2023-04-07T22:15:24.475Z,100985.19
2023-04-07T22:17:51.338Z,100982.13
2023-04-07T22:20:18.278Z,100984.06
2023-04-07T22:22:45.383Z,100977.28
2023-04-07T22:25:12.234Z,100979.88
2023-04-07T22:27:39.077Z,100976.47
2023-04-07T22:30:09.878Z,100982.41
2023-04-07T22:32:36.996Z,100991.03
2023-04-07T22:35:04.038Z,100992.72
2023-04-07T22:37:31.048Z,100992.72
2023-04-07T22:39:57.882Z,100992.63
2023-04-07T22:42:24.706Z,101004.72
2023-04-07T22:44:51.613Z,101002.88
2023-04-07T22:47:18.441Z,101002.13
2023-04-07T22:49:45.467Z,101009.09
2023-04-07T22:52:12.258Z,101002.22
2023-04-07T22:54:39.052Z,101008.34
2023-04-07T22:57:06.253Z,100998.78
2023-04-07T22:59:33.073Z,101001.38
2023-04-07T23:01:59.979Z,101002.28
2023-04-07T23:04:27.215Z,101008.34
2023-04-07T23:06:54.301Z,101002.28
2023-04-07T23:09:21.312Z,101007.44
2023-04-07T23:11:48.736Z,101011.53
2023-04-07T23:14:16.102Z,101013.91
2023-04-07T23:16:43.018Z,101010.47
2023-04-07T23:19:11.778Z,101010.78
2023-04-07T23:21:39.602Z,101010.78
2023-04-07T23:24:06.474Z,101008.19
2023-04-07T23:26:33.369Z,101013.91
2023-04-07T23:29:00.216Z,101009.72
2023-04-07T23:31:28.156Z,101016.72
2023-04-07T23:33:55.130Z,101020.81
2023-04-07T23:36:21.959Z,101019.97
2023-04-07T23:38:49.095Z,101018.13
2023-04-07T23:41:16.291Z,101024.16
2023-04-07T23:43:43.209Z,101024.06
2023-04-07T23:46:10.365Z,101023.22
2023-04-07T23:48:37.238Z,101020.63
2023-04-07T23:51:04.162Z,101023.16
2023-04-07T23:53:31.055Z,101020.16
2023-04-07T23:55:57.941Z,101023.31
2023-04-07T23:58:24.802Z,101023.13
